Time;durP1;ratioP1;P1;durP2;ratioP2;P2;SDS_P1;SDS_P2;PMS_P1;PMS_P2;Temp;Humidity;BMP_temperature;BMP_pressure;BME280_temperature;BME280_humidity;BME280_pressure;Samples;Min_cycle;Max_cycle;Signal;HPM_P1;HPM_P2
2024/03/16 00:01:25;;;;;;;24.92;13.13;;;;;;;;;;6272905;22;20030;-74
2024/03/16 00:03:51;;;;;;;16.73;12.38;;;;;;;;;;6195324;22;20023;-75
2024/03/16 00:06:20;;;;;;;24.65;12.82;;;;;;;;;;6272971;22;20107;-74
2024/03/16 00:08:46;;;;;;;26.88;15.43;;;;;;;;;;6272564;22;20003;-73
2024/03/16 00:11:12;;;;;;;13.68;9.10;;;;;;;;;;6274045;22;20501;-74
2024/03/16 00:13:39;;;;;;;24.08;13.07;;;;;;;;;;6195943;22;20098;-74
2024/03/16 00:16:05;;;;;;;17.35;11.27;;;;;;;;;;6247375;22;20138;-74
2024/03/16 00:18:33;;;;;;;17.02;12.07;;;;;;;;;;6223325;22;20018;-74
2024/03/16 00:20:59;;;;;;;16.90;12.70;;;;;;;;;;6272670;22;20241;-73
2024/03/16 00:23:25;;;;;;;15.43;10.13;;;;;;;;;;6245620;22;20023;-74
2024/03/16 00:25:51;;;;;;;18.58;13.45;;;;;;;;;;6272817;22;20042;-74
2024/03/16 00:28:17;;;;;;;17.15;12.23;;;;;;;;;;6196811;22;20019;-75
2024/03/16 00:30:43;;;;;;;29.25;14.90;;;;;;;;;;6246900;22;20356;-74
2024/03/16 00:33:09;;;;;;;25.45;14.38;;;;;;;;;;6220622;22;20047;-74
2024/03/16 00:35:37;;;;;;;18.33;14.35;;;;;;;;;;6221595;22;20411;-74
2024/03/16 00:38:03;;;;;;;26.25;15.57;;;;;;;;;;6221799;22;20018;-74
2024/03/16 00:40:29;;;;;;;22.70;14.38;;;;;;;;;;6246214;22;20016;-75
2024/03/16 00:42:55;;;;;;;25.27;12.20;;;;;;;;;;6270775;22;20094;-75
2024/03/16 00:45:24;;;;;;;23.92;13.23;;;;;;;;;;6221450;22;20004;-74
2024/03/16 00:47:56;;;;;;;21.85;12.32;;;;;;;;;;6245837;22;20007;-73
2024/03/16 00:50:22;;;;;;;;;;;;;;;;;;6220835;22;20068;-74
2024/03/16 00:52:53;;;;;;;;;;;;;;;;;;6247361;22;20258;-74
2024/03/16 00:55:20;;;;;;;12.00;10.45;;;;;;;;;;6246319;22;20271;-74
2024/03/16 00:57:45;;;;;;;18.98;11.02;;;;;;;;;;6220828;22;20444;-74
2024/03/16 01:00:14;;;;;;;24.10;14.48;;;;;;;;;;6221089;22;20107;-74
2024/03/16 01:02:41;;;;;;;23.42;11.32;;;;;;;;;;6195217;22;20353;-75
2024/03/16 01:05:07;;;;;;;18.65;11.82;;;;;;;;;;6220642;22;20034;-74
2024/03/16 01:07:33;;;;;;;12.77;11.05;;;;;;;;;;6221403;22;20019;-74
2024/03/16 01:09:59;;;;;;;14.25;9.40;;;;;;;;;;6195817;22;20012;-74
2024/03/16 01:12:24;;;;;;;13.68;10.43;;;;;;;;;;6271527;22;20030;-74
2024/03/16 01:14:58;;;;;;;11.68;10.35;;;;;;;;;;6248562;22;20013;-73
2024/03/16 01:17:24;;;;;;;27.47;13.50;;;;;;;;;;6271683;22;20015;-75
2024/03/16 01:19:50;;;;;;;23.80;11.35;;;;;;;;;;6196939;22;20057;-74
2024/03/16 01:22:16;;;;;;;19.30;10.10;;;;;;;;;;6273353;22;20285;-75
2024/03/16 01:24:42;;;;;;;24.48;12.95;;;;;;;;;;6274625;22;20094;-74
2024/03/16 01:27:32;;;;;;;16.88;12.13;;;;;;;;;;6271896;22;20012;-74
2024/03/16 01:30:03;;;;;;;24.67;12.43;;;;;;;;;;6271673;22;20019;-74
2024/03/16 01:32:41;;;;;;;10.48;9.38;;;;;;;;;;6270181;22;20485;-74
2024/03/16 01:35:09;;;;;;;17.20;12.95;;;;;;;;;;6195643;22;20356;-74
2024/03/16 01:37:35;;;;;;;17.63;12.70;;;;;;;;;;6221087;22;20004;-74
2024/03/16 01:40:04;;;;;;;15.32;10.63;;;;;;;;;;6246364;22;20039;-74
2024/03/16 01:42:30;;;;;;;20.02;14.05;;;;;;;;;;6219278;22;20038;-74
2024/03/16 01:45:01;;;;;;;17.52;12.27;;;;;;;;;;6246037;22;20015;-74
2024/03/16 01:47:31;;;;;;;14.43;11.45;;;;;;;;;;6272725;22;20102;-74
2024/03/16 01:50:01;;;;;;;17.40;12.68;;;;;;;;;;6272802;22;20098;-74
2024/03/16 01:52:42;;;;;;;20.63;13.00;;;;;;;;;;6254989;22;20046;-73
2024/03/16 01:55:51;;;;;;;18.75;10.70;;;;;;;;;;6270647;22;20012;-75
2024/03/16 01:58:17;;;;;;;11.52;9.00;;;;;;;;;;6220859;22;20011;-75
2024/03/16 02:00:47;;;;;;;15.32;10.65;;;;;;;;;;6248256;22;20023;-75
2024/03/16 02:03:13;;;;;;;18.13;12.50;;;;;;;;;;6246508;22;20019;-75
2024/03/16 02:05:41;;;;;;;14.25;10.77;;;;;;;;;;6274432;22;20019;-74
2024/03/16 02:08:12;;;;;;;17.20;11.73;;;;;;;;;;6248069;22;20011;-73
2024/03/16 02:10:47;;;;;;;16.65;12.57;;;;;;;;;;6243062;22;20037;-74
2024/03/16 02:13:13;;;;;;;15.55;11.10;;;;;;;;;;6274551;22;20015;-74
2024/03/16 02:15:39;;;;;;;18.48;11.68;;;;;;;;;;6197583;22;20012;-74
2024/03/16 02:18:09;;;;;;;22.45;11.52;;;;;;;;;;6247705;22;20007;-74
2024/03/16 02:20:37;;;;;;;12.37;8.17;;;;;;;;;;6222859;22;20048;-74
2024/03/16 02:23:12;;;;;;;23.88;12.80;;;;;;;;;;6222887;22;20755;-75
2024/03/16 02:25:38;;;;;;;17.00;12.65;;;;;;;;;;6252920;22;20532;-74
2024/03/16 02:28:04;;;;;;;17.27;12.63;;;;;;;;;;6234886;22;20408;-74
2024/03/16 02:30:30;;;;;;;25.20;13.05;;;;;;;;;;6283581;22;20022;-74
2024/03/16 02:32:56;;;;;;;23.50;14.73;;;;;;;;;;6144622;22;20057;-74
2024/03/16 02:35:22;;;;;;;21.23;15.32;;;;;;;;;;6092004;23;20148;-74
2024/03/16 02:37:57;;;;;;;22.88;14.05;;;;;;;;;;6065698;23;20231;-74
2024/03/16 02:40:59;;;;;;;24.92;14.73;;;;;;;;;;6091155;23;20022;-74
2024/03/16 02:43:25;;;;;;;20.83;14.05;;;;;;;;;;6079666;23;20023;-73
2024/03/16 02:45:52;;;;;;;27.05;13.70;;;;;;;;;;6112644;23;20336;-73
2024/03/16 02:48:18;;;;;;;29.40;15.48;;;;;;;;;;6113057;23;20064;-73
2024/03/16 02:50:44;;;;;;;26.65;15.30;;;;;;;;;;6088829;23;20021;-74
2024/03/16 02:53:10;;;;;;;22.92;14.02;;;;;;;;;;6105312;23;20026;-73
2024/03/16 02:55:36;;;;;;;28.60;17.38;;;;;;;;;;6117525;23;20018;-73
2024/03/16 02:58:02;;;;;;;31.83;17.05;;;;;;;;;;6142536;23;20018;-73
2024/03/16 03:00:28;;;;;;;32.28;18.35;;;;;;;;;;6119146;23;20071;-74
2024/03/16 03:02:53;;;;;;;28.17;14.88;;;;;;;;;;6217264;22;20363;-74
2024/03/16 03:05:20;;;;;;;37.38;18.00;;;;;;;;;;6272597;22;20042;-74
2024/03/16 03:07:47;;;;;;;21.63;15.00;;;;;;;;;;6272652;22;20012;-74
2024/03/16 03:10:13;;;;;;;35.67;14.63;;;;;;;;;;6274241;22;20308;-75
2024/03/16 03:12:39;;;;;;;19.55;14.65;;;;;;;;;;6273592;22;20026;-74
2024/03/16 03:15:06;;;;;;;22.77;13.90;;;;;;;;;;6274967;22;20090;-74
2024/03/16 03:17:32;;;;;;;23.60;13.15;;;;;;;;;;6274220;22;20018;-74
2024/03/16 03:19:58;;;;;;;13.43;8.93;;;;;;;;;;6273129;22;20095;-75
2024/03/16 03:22:24;;;;;;;19.02;11.73;;;;;;;;;;6271562;22;20047;-74
2024/03/16 03:24:50;;;;;;;25.08;13.80;;;;;;;;;;6272507;22;20020;-74
2024/03/16 03:27:16;;;;;;;17.58;13.10;;;;;;;;;;6274024;22;20368;-73
2024/03/16 03:29:41;;;;;;;23.45;12.90;;;;;;;;;;6246932;22;20467;-74
2024/03/16 03:32:07;;;;;;;12.15;10.68;;;;;;;;;;6273048;22;20022;-75
2024/03/16 03:34:33;;;;;;;12.52;10.43;;;;;;;;;;6272363;22;20088;-75
2024/03/16 03:36:59;;;;;;;21.35;10.75;;;;;;;;;;6272443;22;20088;-75
2024/03/16 03:39:25;;;;;;;17.90;9.25;;;;;;;;;;6272711;22;20328;-74
2024/03/16 03:41:52;;;;;;;19.70;12.65;;;;;;;;;;6270880;22;20020;-74
2024/03/16 03:44:21;;;;;;;16.95;11.00;;;;;;;;;;6274149;22;20039;-74
2024/03/16 03:46:50;;;;;;;11.45;9.88;;;;;;;;;;6273722;22;20327;-74
2024/03/16 03:49:26;;;;;;;15.07;9.02;;;;;;;;;;6272854;22;20012;-74
2024/03/16 03:51:53;;;;;;;12.02;9.15;;;;;;;;;;6270986;22;20494;-74
2024/03/16 03:54:19;;;;;;;15.02;12.60;;;;;;;;;;6272549;22;20011;-75
2024/03/16 03:56:46;;;;;;;19.42;13.02;;;;;;;;;;6271863;22;20053;-75
2024/03/16 03:59:11;;;;;;;17.95;11.73;;;;;;;;;;6247527;22;20012;-74
2024/03/16 04:01:37;;;;;;;17.92;12.63;;;;;;;;;;6271708;22;20030;-73
2024/03/16 04:04:04;;;;;;;16.70;12.50;;;;;;;;;;6271514;22;20019;-75
2024/03/16 04:06:30;;;;;;;22.33;12.05;;;;;;;;;;6272289;22;20394;-75
2024/03/16 04:08:57;;;;;;;14.98;12.25;;;;;;;;;;6275506;22;20035;-74
2024/03/16 04:11:25;;;;;;;21.58;12.80;;;;;;;;;;6273640;22;20011;-74
2024/03/16 04:13:51;;;;;;;18.73;11.90;;;;;;;;;;6270479;22;20063;-73
2024/03/16 04:16:19;;;;;;;21.20;11.93;;;;;;;;;;6272357;22;20061;-74
2024/03/16 04:18:45;;;;;;;22.70;12.80;;;;;;;;;;6273617;22;20043;-74
2024/03/16 04:21:12;;;;;;;19.05;12.55;;;;;;;;;;6272938;22;20526;-75
2024/03/16 04:23:38;;;;;;;16.08;12.27;;;;;;;;;;6270257;22;20020;-75
2024/03/16 04:26:04;;;;;;;20.13;12.93;;;;;;;;;;6246412;22;20356;-74
2024/03/16 04:28:30;;;;;;;13.13;11.63;;;;;;;;;;6245954;22;20410;-75
2024/03/16 04:30:56;;;;;;;26.52;11.10;;;;;;;;;;6273061;22;20453;-74
2024/03/16 04:33:22;;;;;;;14.73;13.18;;;;;;;;;;6245119;22;20165;-74
2024/03/16 04:35:48;;;;;;;13.45;11.10;;;;;;;;;;6247030;22;20014;-75
2024/03/16 04:38:13;;;;;;;18.88;14.15;;;;;;;;;;6274209;22;20102;-75
2024/03/16 04:40:39;;;;;;;20.33;13.40;;;;;;;;;;6221409;22;20046;-76
2024/03/16 04:43:05;;;;;;;17.95;13.45;;;;;;;;;;6270518;22;20042;-77
2024/03/16 04:45:31;;;;;;;17.52;13.38;;;;;;;;;;6273275;22;20046;-76
2024/03/16 04:47:57;;;;;;;23.13;12.90;;;;;;;;;;6272964;22;20199;-75
2024/03/16 04:50:24;;;;;;;24.58;13.02;;;;;;;;;;6271947;22;20443;-76
2024/03/16 04:52:50;;;;;;;32.45;14.43;;;;;;;;;;6270057;22;20078;-74
2024/03/16 04:55:15;;;;;;;22.55;13.18;;;;;;;;;;6272474;22;20008;-74
2024/03/16 04:57:41;;;;;;;17.70;11.73;;;;;;;;;;6271551;22;20011;-74
2024/03/16 05:00:11;;;;;;;18.48;12.20;;;;;;;;;;6273366;22;20065;-74
2024/03/16 05:02:38;;;;;;;19.13;10.65;;;;;;;;;;6270583;22;20031;-75
2024/03/16 05:05:08;;;;;;;12.55;10.18;;;;;;;;;;6221117;22;20050;-75
2024/03/16 05:07:34;;;;;;;17.73;9.70;;;;;;;;;;6272915;22;20012;-73
2024/03/16 05:10:01;;;;;;;12.75;9.70;;;;;;;;;;6271801;22;20085;-73
2024/03/16 05:12:27;;;;;;;18.42;12.50;;;;;;;;;;6272215;22;20026;-73
2024/03/16 05:14:53;;;;;;;17.70;10.52;;;;;;;;;;6273282;22;20007;-73
2024/03/16 05:17:19;;;;;;;13.90;11.13;;;;;;;;;;6273248;22;20456;-74
2024/03/16 05:19:46;;;;;;;21.73;13.02;;;;;;;;;;6272658;22;20364;-76
2024/03/16 05:22:12;;;;;;;23.52;12.20;;;;;;;;;;6271693;22;20027;-74
2024/03/16 05:24:40;;;;;;;19.75;13.57;;;;;;;;;;6246494;22;20016;-73
2024/03/16 05:27:07;;;;;;;19.50;12.77;;;;;;;;;;6271103;22;20064;-73
2024/03/16 05:29:33;;;;;;;21.52;13.40;;;;;;;;;;6272076;22;20012;-72
2024/03/16 05:31:59;;;;;;;21.90;13.52;;;;;;;;;;6243280;22;20460;-73
2024/03/16 05:34:25;;;;;;;19.08;12.88;;;;;;;;;;6272294;22;20011;-76
2024/03/16 05:36:51;;;;;;;10.70;9.23;;;;;;;;;;6273165;22;20039;-75
2024/03/16 05:39:17;;;;;;;19.75;12.25;;;;;;;;;;6272329;22;20094;-74
2024/03/16 05:41:43;;;;;;;24.63;13.45;;;;;;;;;;6268942;22;20027;-73
2024/03/16 05:44:10;;;;;;;17.42;13.57;;;;;;;;;;6269882;22;20038;-73
2024/03/16 05:46:36;;;;;;;22.25;15.27;;;;;;;;;;6244425;22;20066;-74
2024/03/16 05:49:02;;;;;;;20.20;13.20;;;;;;;;;;6218789;22;20098;-73
2024/03/16 05:51:47;;;;;;;17.02;13.65;;;;;;;;;;6269948;22;20034;-73
2024/03/16 05:54:13;;;;;;;24.35;14.60;;;;;;;;;;6271289;22;20478;-74
2024/03/16 05:56:39;;;;;;;18.40;15.70;;;;;;;;;;6271060;22;20012;-73
2024/03/16 05:59:11;;;;;;;23.00;15.23;;;;;;;;;;6270554;22;20134;-73
2024/03/16 06:01:37;;;;;;;19.48;12.90;;;;;;;;;;6271635;22;20027;-73
2024/03/16 06:04:03;;;;;;;25.88;17.45;;;;;;;;;;6272522;22;20415;-73
2024/03/16 06:06:31;;;;;;;19.05;15.43;;;;;;;;;;6272726;22;20051;-74
2024/03/16 06:08:57;;;;;;;27.25;15.07;;;;;;;;;;6272653;22;20077;-73
2024/03/16 06:11:23;;;;;;;24.75;14.82;;;;;;;;;;6272949;22;20515;-73
2024/03/16 06:13:50;;;;;;;18.80;14.35;;;;;;;;;;6270091;22;20016;-73
2024/03/16 06:16:21;;;;;;;28.10;16.80;;;;;;;;;;6271621;22;20570;-73
2024/03/16 06:18:47;;;;;;;22.23;13.65;;;;;;;;;;6273827;22;20008;-74
2024/03/16 06:21:13;;;;;;;17.85;12.40;;;;;;;;;;6247711;22;20015;-74
2024/03/16 06:23:39;;;;;;;22.95;11.27;;;;;;;;;;6274122;22;20118;-73
2024/03/16 06:26:06;;;;;;;26.73;17.25;;;;;;;;;;6196937;22;20012;-73
2024/03/16 06:28:36;;;;;;;27.60;16.48;;;;;;;;;;6274150;22;20027;-73
2024/03/16 06:31:09;;;;;;;26.65;18.42;;;;;;;;;;6271504;22;20032;-73
2024/03/16 06:33:36;;;;;;;27.60;17.42;;;;;;;;;;6271893;22;20415;-73
2024/03/16 06:36:02;;;;;;;33.10;18.38;;;;;;;;;;6271149;22;20019;-73
2024/03/16 06:38:29;;;;;;;26.83;17.25;;;;;;;;;;6271477;22;20022;-73
2024/03/16 06:40:55;;;;;;;34.28;19.67;;;;;;;;;;6271054;22;20548;-73
2024/03/16 06:43:21;;;;;;;22.40;14.82;;;;;;;;;;6270737;22;20039;-73
2024/03/16 06:45:47;;;;;;;25.13;14.63;;;;;;;;;;6274714;22;20046;-74
2024/03/16 06:48:16;;;;;;;30.50;16.48;;;;;;;;;;6272916;22;20016;-73
2024/03/16 06:50:44;;;;;;;26.52;15.10;;;;;;;;;;6274925;22;20444;-73
2024/03/16 06:53:11;;;;;;;34.97;15.43;;;;;;;;;;6273223;22;20096;-73
2024/03/16 06:55:37;;;;;;;23.95;15.00;;;;;;;;;;6273077;22;20019;-73
2024/03/16 06:58:04;;;;;;;22.27;15.07;;;;;;;;;;6273010;22;20008;-73
2024/03/16 07:00:30;;;;;;;26.17;14.85;;;;;;;;;;6275116;22;20016;-74
2024/03/16 07:03:15;;;;;;;18.80;12.45;;;;;;;;;;6271630;22;20024;-72
2024/03/16 07:05:44;;;;;;;26.63;14.88;;;;;;;;;;6274142;22;20415;-77
2024/03/16 07:08:16;;;;;;;29.13;14.48;;;;;;;;;;6246513;22;20012;-74
2024/03/16 07:10:45;;;;;;;19.48;13.82;;;;;;;;;;6273041;22;20011;-73
2024/03/16 07:13:11;;;;;;;31.55;14.60;;;;;;;;;;6273122;22;20472;-73
2024/03/16 07:15:39;;;;;;;20.83;14.52;;;;;;;;;;6272888;22;20031;-73
2024/03/16 07:18:05;;;;;;;25.27;14.70;;;;;;;;;;6270022;22;20012;-74
2024/03/16 07:20:32;;;;;;;24.38;14.48;;;;;;;;;;6271529;22;20014;-74
2024/03/16 07:22:58;;;;;;;22.20;14.07;;;;;;;;;;6260249;22;20547;-74
2024/03/16 07:25:24;;;;;;;26.38;14.40;;;;;;;;;;6267138;22;20007;-74
2024/03/16 07:27:51;;;;;;;27.65;15.13;;;;;;;;;;6278465;22;20038;-74
2024/03/16 07:30:18;;;;;;;29.60;15.00;;;;;;;;;;6282728;22;20015;-74
2024/03/16 07:32:46;;;;;;;19.45;13.57;;;;;;;;;;6281161;22;20079;-74
2024/03/16 07:35:13;;;;;;;21.55;13.35;;;;;;;;;;6273869;22;20065;-74
2024/03/16 07:37:39;;;;;;;28.58;14.88;;;;;;;;;;6271813;22;20019;-73
2024/03/16 07:40:13;;;;;;;22.65;14.98;;;;;;;;;;6269328;22;20007;-74
2024/03/16 07:42:41;;;;;;;24.77;15.98;;;;;;;;;;6270269;22;20027;-73
2024/03/16 07:45:09;;;;;;;20.85;14.52;;;;;;;;;;6271916;22;20007;-74
2024/03/16 07:47:35;;;;;;;23.70;14.73;;;;;;;;;;6269926;22;20007;-73
2024/03/16 07:50:03;;;;;;;24.45;14.10;;;;;;;;;;6271479;22;20015;-73
2024/03/16 07:52:29;;;;;;;23.02;16.55;;;;;;;;;;6268103;22;20030;-74
2024/03/16 07:54:55;;;;;;;24.45;15.30;;;;;;;;;;6244000;22;20007;-74
2024/03/16 07:57:21;;;;;;;23.83;15.18;;;;;;;;;;6271350;22;20094;-74
2024/03/16 07:59:47;;;;;;;21.70;14.88;;;;;;;;;;6270995;22;20004;-74
2024/03/16 08:02:13;;;;;;;28.40;15.60;;;;;;;;;;6266452;22;20016;-76
2024/03/16 08:04:38;;;;;;;19.92;15.10;;;;;;;;;;6271026;22;20018;-75
2024/03/16 08:07:04;;;;;;;25.33;15.07;;;;;;;;;;6269720;22;20020;-74
2024/03/16 08:09:30;;;;;;;24.02;14.82;;;;;;;;;;6267561;22;20065;-76
2024/03/16 08:11:57;;;;;;;20.95;13.43;;;;;;;;;;6267794;22;20285;-74
2024/03/16 08:14:39;;;;;;;20.00;14.63;;;;;;;;;;6268562;22;20448;-75
2024/03/16 08:17:04;;;;;;;20.60;15.27;;;;;;;;;;6266265;22;20007;-73
2024/03/16 08:19:34;;;;;;;19.27;15.05;;;;;;;;;;6268554;22;20047;-75
2024/03/16 08:22:00;;;;;;;23.73;13.85;;;;;;;;;;6268521;22;20027;-73
2024/03/16 08:24:26;;;;;;;24.48;14.98;;;;;;;;;;6242033;22;20079;-75
2024/03/16 08:26:52;;;;;;;22.63;14.20;;;;;;;;;;6270244;22;20039;-75
2024/03/16 08:33:24;;;;;;;24.23;13.88;;;;;;;;;;6225143;22;20070;-73
2024/03/16 08:35:50;;;;;;;27.90;15.18;;;;;;;;;;6243243;22;20024;-74
2024/03/16 08:38:23;;;;;;;27.38;16.17;;;;;;;;;;6215209;22;20012;-72
2024/03/16 08:40:54;;;;;;;25.33;13.68;;;;;;;;;;6210843;22;20351;-72
2024/03/16 08:43:21;;;;;;;17.55;12.68;;;;;;;;;;6204199;22;20457;-73
2024/03/16 08:45:47;;;;;;;18.30;12.27;;;;;;;;;;6191414;22;20012;-72
2024/03/16 08:48:26;;;;;;;19.00;12.23;;;;;;;;;;6193701;22;20084;-73
2024/03/16 08:50:52;;;;;;;17.63;12.13;;;;;;;;;;6241549;22;20012;-73
2024/03/16 08:53:18;;;;;;;19.55;12.27;;;;;;;;;;6209974;22;20020;-72
2024/03/16 08:55:44;;;;;;;19.83;12.23;;;;;;;;;;6218688;22;20510;-71
2024/03/16 08:58:10;;;;;;;20.58;12.02;;;;;;;;;;6268407;22;20175;-75
2024/03/16 09:00:41;;;;;;;14.18;11.00;;;;;;;;;;6219786;22;20035;-73
2024/03/16 09:03:07;;;;;;;24.13;12.43;;;;;;;;;;6190512;22;20072;-73
2024/03/16 09:05:57;;;;;;;;;;;;;;;;;;6245960;22;20016;-72
2024/03/16 09:08:24;;;;;;;15.88;11.77;;;;;;;;;;6238707;22;19921;-74
2024/03/16 09:10:51;;;;;;;17.80;12.38;;;;;;;;;;6191145;22;20023;-74
2024/03/16 09:13:38;;;;;;;20.42;11.93;;;;;;;;;;6239470;22;20114;-72
2024/03/16 09:16:07;;;;;;;15.27;11.32;;;;;;;;;;6236207;22;20020;-75
2024/03/16 09:21:25;;;;;;;15.77;10.65;;;;;;;;;;6246922;22;20007;-74
2024/03/16 09:24:16;;;;;;;15.57;11.50;;;;;;;;;;6266022;22;20024;-73
2024/03/16 09:27:10;;;;;;;12.73;9.77;;;;;;;;;;6241496;22;20007;-73
2024/03/16 09:29:43;;;;;;;18.30;11.05;;;;;;;;;;6227223;22;20022;-75
2024/03/16 09:32:10;;;;;;;14.18;10.52;;;;;;;;;;6214856;22;20031;-72
2024/03/16 09:34:48;;;;;;;15.13;9.43;;;;;;;;;;6216276;22;20122;-73
2024/03/16 09:37:24;;;;;;;11.00;8.98;;;;;;;;;;6266730;22;20012;-71
2024/03/16 09:39:51;;;;;;;17.90;9.77;;;;;;;;;;6216365;22;20102;-70
2024/03/16 09:42:21;;;;;;;16.17;9.75;;;;;;;;;;6221127;22;20069;-72
2024/03/16 09:44:49;;;;;;;13.67;9.53;;;;;;;;;;6198025;22;20353;-70
2024/03/16 09:47:37;;;;;;;18.40;9.57;;;;;;;;;;6245790;22;20301;-71
2024/03/16 09:50:24;;;;;;;13.27;10.30;;;;;;;;;;6246921;22;20102;-69
2024/03/16 09:52:50;;;;;;;13.52;9.75;;;;;;;;;;6266606;22;20031;-69
2024/03/16 09:55:16;;;;;;;12.63;9.48;;;;;;;;;;6242920;22;20394;-70
2024/03/16 09:57:43;;;;;;;19.13;9.75;;;;;;;;;;6267357;22;20023;-70
2024/03/16 10:00:10;;;;;;;18.52;9.88;;;;;;;;;;6268785;22;20015;-70
2024/03/16 10:02:39;;;;;;;15.23;11.17;;;;;;;;;;6210699;22;20423;-69
2024/03/16 10:05:05;;;;;;;17.08;9.50;;;;;;;;;;6254375;22;20019;-69
2024/03/16 10:07:31;;;;;;;14.32;8.93;;;;;;;;;;6267856;22;20372;-69
2024/03/16 10:09:57;;;;;;;13.68;10.18;;;;;;;;;;6242108;22;20034;-70
2024/03/16 10:12:23;;;;;;;16.65;10.63;;;;;;;;;;6267051;22;20367;-70
2024/03/16 10:17:43;;;;;;;12.50;9.52;;;;;;;;;;6244907;22;20296;-70
2024/03/16 10:20:16;;;;;;;9.25;8.15;;;;;;;;;;6268321;22;20027;-70
2024/03/16 10:22:44;;;;;;;14.32;8.80;;;;;;;;;;6190807;22;20084;-70
2024/03/16 10:25:13;;;;;;;14.13;9.73;;;;;;;;;;6245976;22;20023;-69
2024/03/16 10:27:39;;;;;;;14.75;9.10;;;;;;;;;;6244459;22;20471;-70
2024/03/16 10:30:10;;;;;;;12.90;9.07;;;;;;;;;;6269766;22;20337;-69
2024/03/16 10:32:37;;;;;;;12.60;8.95;;;;;;;;;;6268405;22;20471;-69
2024/03/16 10:35:07;;;;;;;18.83;9.82;;;;;;;;;;6270761;22;20479;-70
2024/03/16 10:37:35;;;;;;;14.93;9.65;;;;;;;;;;6244924;22;20038;-70
2024/03/16 10:40:13;;;;;;;15.77;9.75;;;;;;;;;;6219577;22;20058;-70
2024/03/16 10:42:46;;;;;;;18.20;10.00;;;;;;;;;;6269056;22;20046;-69
2024/03/16 10:45:20;;;;;;;11.40;9.45;;;;;;;;;;6294721;22;20099;-69
2024/03/16 10:47:50;;;;;;;13.40;9.45;;;;;;;;;;6270008;22;20098;-69
2024/03/16 10:50:19;;;;;;;12.57;10.30;;;;;;;;;;6271056;22;20035;-69
2024/03/16 10:52:47;;;;;;;16.85;9.70;;;;;;;;;;6253435;22;20738;-70
2024/03/16 10:55:22;;;;;;;14.68;10.05;;;;;;;;;;6272080;22;20448;-69
2024/03/16 10:58:32;;;;;;;11.18;7.95;;;;;;;;;;6269964;22;20011;-71
2024/03/16 11:01:00;;;;;;;21.33;8.80;;;;;;;;;;6270365;22;20253;-70
2024/03/16 11:03:29;;;;;;;14.95;9.85;;;;;;;;;;6268542;22;20015;-69
2024/03/16 11:06:11;;;;;;;12.52;8.55;;;;;;;;;;6271922;22;20020;-70
2024/03/16 11:08:39;;;;;;;15.20;10.10;;;;;;;;;;6271036;22;20049;-70
2024/03/16 11:11:08;;;;;;;18.88;10.90;;;;;;;;;;6244055;22;20081;-69
2024/03/16 11:13:34;;;;;;;11.50;9.60;;;;;;;;;;6268206;22;20042;-69
2024/03/16 11:15:59;;;;;;;13.77;10.02;;;;;;;;;;6271167;22;20019;-69
2024/03/16 11:18:25;;;;;;;14.65;9.23;;;;;;;;;;6270326;22;20131;-70
2024/03/16 11:20:53;;;;;;;15.02;10.82;;;;;;;;;;6269764;22;20419;-71
2024/03/16 11:23:24;;;;;;;16.15;11.32;;;;;;;;;;6267815;22;20016;-70
2024/03/16 11:25:50;;;;;;;10.45;9.27;;;;;;;;;;6270482;22;20088;-69
2024/03/16 11:28:18;;;;;;;17.50;10.70;;;;;;;;;;6272252;22;20446;-69
2024/03/16 11:30:46;;;;;;;11.82;10.10;;;;;;;;;;6270787;22;20022;-71
2024/03/16 11:33:15;;;;;;;17.00;11.20;;;;;;;;;;6270266;22;20507;-70
2024/03/16 11:35:41;;;;;;;15.60;9.65;;;;;;;;;;6271759;22;20061;-71
2024/03/16 11:38:10;;;;;;;18.80;10.60;;;;;;;;;;6270863;22;20003;-69
2024/03/16 11:40:39;;;;;;;14.35;10.85;;;;;;;;;;6244056;22;20016;-69
2024/03/16 11:43:08;;;;;;;14.27;11.80;;;;;;;;;;6269323;22;20016;-70
2024/03/16 11:45:34;;;;;;;16.90;12.15;;;;;;;;;;6193819;22;20012;-69
2024/03/16 11:48:01;;;;;;;22.65;12.63;;;;;;;;;;6270214;22;20008;-70
2024/03/16 11:50:27;;;;;;;22.80;11.25;;;;;;;;;;6268508;22;20448;-70
2024/03/16 11:52:53;;;;;;;18.63;12.95;;;;;;;;;;6193781;22;20030;-70
2024/03/16 11:55:22;;;;;;;26.50;12.00;;;;;;;;;;6115353;23;20040;-70
2024/03/16 11:57:48;;;;;;;22.77;13.43;;;;;;;;;;6113697;23;20042;-70
2024/03/16 12:00:17;;;;;;;21.20;13.65;;;;;;;;;;6090269;23;20017;-69
2024/03/16 12:02:56;;;;;;;19.48;11.15;;;;;;;;;;6178520;22;20024;-71
2024/03/16 12:05:22;;;;;;;20.17;9.02;;;;;;;;;;6270540;22;20015;-70
2024/03/16 12:07:48;;;;;;;26.02;12.98;;;;;;;;;;6270340;22;20018;-70
2024/03/16 12:10:14;;;;;;;23.45;14.80;;;;;;;;;;6270807;22;20008;-70
2024/03/16 12:12:41;;;;;;;16.92;11.35;;;;;;;;;;6268048;22;20089;-70
2024/03/16 12:15:17;;;;;;;23.30;10.90;;;;;;;;;;6267973;22;20145;-69
2024/03/16 12:17:44;;;;;;;29.40;13.85;;;;;;;;;;6243963;22;20023;-69
2024/03/16 12:20:16;;;;;;;25.77;13.20;;;;;;;;;;6270230;22;20012;-69
2024/03/16 12:22:53;;;;;;;24.30;13.90;;;;;;;;;;6241840;22;20020;-69
2024/03/16 12:25:25;;;;;;;17.98;11.68;;;;;;;;;;6271469;22;20015;-71
2024/03/16 12:27:52;;;;;;;22.50;11.52;;;;;;;;;;6243192;22;20106;-70
2024/03/16 12:30:18;;;;;;;18.60;9.95;;;;;;;;;;6243337;22;20039;-70
2024/03/16 12:32:46;;;;;;;23.42;12.73;;;;;;;;;;6241313;22;21183;-70
2024/03/16 12:35:13;;;;;;;23.83;11.18;;;;;;;;;;6268695;22;20004;-70
2024/03/16 12:37:39;;;;;;;24.42;11.90;;;;;;;;;;6267651;22;20323;-71
2024/03/16 12:40:08;;;;;;;20.63;11.02;;;;;;;;;;6268517;22;20004;-70
2024/03/16 12:42:34;;;;;;;16.50;10.43;;;;;;;;;;6267104;22;20015;-70
2024/03/16 12:45:03;;;;;;;28.27;12.68;;;;;;;;;;6271412;22;20018;-70
2024/03/16 12:47:35;;;;;;;27.77;11.18;;;;;;;;;;6219369;22;20022;-70
2024/03/16 12:50:01;;;;;;;16.15;12.25;;;;;;;;;;6268126;22;20081;-69
2024/03/16 12:52:29;;;;;;;29.10;11.95;;;;;;;;;;6266582;22;20431;-70
2024/03/16 12:54:54;;;;;;;25.90;11.40;;;;;;;;;;6270070;22;20042;-70
2024/03/16 12:57:20;;;;;;;27.48;10.95;;;;;;;;;;6268489;22;20011;-71
2024/03/16 12:59:47;;;;;;;22.48;10.60;;;;;;;;;;6242874;22;20016;-71
2024/03/16 13:02:13;;;;;;;20.25;10.75;;;;;;;;;;6267177;22;20046;-70
2024/03/16 13:04:39;;;;;;;20.05;8.82;;;;;;;;;;6267600;22;20011;-70
2024/03/16 13:07:05;;;;;;;23.70;9.57;;;;;;;;;;6268138;22;20199;-70
2024/03/16 13:09:31;;;;;;;21.10;9.77;;;;;;;;;;6242193;22;20526;-70
2024/03/16 13:14:41;;;;;;;21.25;9.30;;;;;;;;;;6267484;22;20098;-70
2024/03/16 13:17:08;;;;;;;25.35;8.00;;;;;;;;;;6268006;22;20018;-70
2024/03/16 13:19:33;;;;;;;29.23;8.23;;;;;;;;;;6268377;22;20356;-69
2024/03/16 13:21:59;;;;;;;26.83;8.85;;;;;;;;;;6267325;22;20042;-69
2024/03/16 13:24:26;;;;;;;25.08;8.43;;;;;;;;;;6269969;22;20004;-70
2024/03/16 13:26:55;;;;;;;25.17;8.27;;;;;;;;;;6268265;22;20065;-69
2024/03/16 13:29:20;;;;;;;26.00;7.70;;;;;;;;;;6268248;22;20016;-69
2024/03/16 13:31:46;;;;;;;29.60;8.63;;;;;;;;;;6252827;22;20023;-70
2024/03/16 13:34:12;;;;;;;35.03;8.90;;;;;;;;;;6292475;22;20007;-69
2024/03/16 13:36:38;;;;;;;43.85;10.43;;;;;;;;;;6269485;22;20011;-70
2024/03/16 13:39:07;;;;;;;28.88;9.43;;;;;;;;;;6267207;22;20012;-70
2024/03/16 13:41:33;;;;;;;31.40;8.20;;;;;;;;;;6243871;22;20404;-70
2024/03/16 13:43:59;;;;;;;23.00;6.28;;;;;;;;;;6268745;22;20024;-70
2024/03/16 13:46:25;;;;;;;39.72;6.22;;;;;;;;;;6269572;22;20039;-70
2024/03/16 13:48:58;;;;;;;36.08;7.93;;;;;;;;;;6268334;22;20015;-69
2024/03/16 13:51:29;;;;;;;25.38;6.63;;;;;;;;;;6267154;22;20448;-69
2024/03/16 13:54:01;;;;;;;24.27;5.85;;;;;;;;;;6267721;22;20068;-69
2024/03/16 13:56:27;;;;;;;24.63;5.97;;;;;;;;;;6270838;22;20015;-70
2024/03/16 13:58:53;;;;;;;27.20;5.65;;;;;;;;;;6243276;22;20462;-69
2024/03/16 14:01:24;;;;;;;17.05;5.10;;;;;;;;;;6246811;22;20362;-69
2024/03/16 14:04:19;;;;;;;40.65;12.95;;;;;;;;;;6270852;22;20024;-77
2024/03/16 14:07:15;;;;;;;46.25;14.20;;;;;;;;;;6276282;22;20043;-77
2024/03/16 14:10:03;;;;;;;32.35;7.00;;;;;;;;;;6278867;22;20023;-79
2024/03/16 14:12:32;;;;;;;31.10;6.35;;;;;;;;;;6174803;23;20026;-80
2024/03/16 14:15:24;;;;;;;25.70;5.88;;;;;;;;;;6099578;23;20454;-79
2024/03/16 14:17:50;;;;;;;28.25;6.60;;;;;;;;;;6102436;23;20528;-80
2024/03/16 14:20:19;;;;;;;23.73;5.72;;;;;;;;;;6079992;23;20011;-80
2024/03/16 14:22:51;;;;;;;21.85;6.13;;;;;;;;;;6111696;23;20022;-78
2024/03/16 14:25:26;;;;;;;16.93;6.27;;;;;;;;;;6073012;23;20068;-78
2024/03/16 14:27:53;;;;;;;35.65;6.57;;;;;;;;;;6050914;23;20314;-78
2024/03/16 14:30:20;;;;;;;26.00;5.75;;;;;;;;;;6119900;23;20016;-79
2024/03/16 14:32:46;;;;;;;21.58;4.85;;;;;;;;;;6046968;23;20563;-79
2024/03/16 14:35:13;;;;;;;28.58;6.40;;;;;;;;;;6098863;23;20473;-78
2024/03/16 14:37:58;;;;;;;25.20;5.43;;;;;;;;;;6099850;23;20071;-77
2024/03/16 14:40:24;;;;;;;25.42;5.30;;;;;;;;;;6052750;23;20009;-78
2024/03/16 14:42:50;;;;;;;12.07;5.53;;;;;;;;;;6045312;23;20724;-78